sensor_id;sensor_type;location;lat;lon;timestamp;P1;durP1;ratioP1;P2;durP2;ratioP2
3253;SDS011;1639;42.804;23.342;2023-06-22T00:01:57;4.90;;;1.40;;
3253;SDS011;1639;42.804;23.342;2023-06-22T00:04:23;4.90;;;1.27;;
3253;SDS011;1639;42.804;23.342;2023-06-22T00:06:48;4.80;;;1.90;;
3253;SDS011;1639;42.804;23.342;2023-06-22T00:09:13;4.60;;;1.30;;
3253;SDS011;1639;42.804;23.342;2023-06-22T00:11:39;4.87;;;1.70;;
3253;SDS011;1639;42.804;23.342;2023-06-22T00:14:04;5.37;;;1.57;;
3253;SDS011;1639;42.804;23.342;2023-06-22T00:16:31;5.33;;;1.63;;
3253;SDS011;1639;42.804;23.342;2023-06-22T00:18:57;4.90;;;1.40;;
3253;SDS011;1639;42.804;23.342;2023-06-22T00:21:25;4.60;;;1.20;;
3253;SDS011;1639;42.804;23.342;2023-06-22T00:23:53;8.97;;;2.03;;
3253;SDS011;1639;42.804;23.342;2023-06-22T00:26:19;4.67;;;1.43;;
3253;SDS011;1639;42.804;23.342;2023-06-22T00:28:45;4.70;;;1.47;;
3253;SDS011;1639;42.804;23.342;2023-06-22T00:31:11;5.43;;;1.60;;
3253;SDS011;1639;42.804;23.342;2023-06-22T00:33:36;4.70;;;1.50;;
3253;SDS011;1639;42.804;23.342;2023-06-22T00:36:02;4.67;;;1.30;;
3253;SDS011;1639;42.804;23.342;2023-06-22T00:38:28;4.53;;;1.10;;
3253;SDS011;1639;42.804;23.342;2023-06-22T00:40:54;4.53;;;1.27;;
3253;SDS011;1639;42.804;23.342;2023-06-22T00:43:19;5.10;;;1.70;;
3253;SDS011;1639;42.804;23.342;2023-06-22T00:45:45;4.63;;;1.60;;
3253;SDS011;1639;42.804;23.342;2023-06-22T00:48:10;4.53;;;1.10;;
3253;SDS011;1639;42.804;23.342;2023-06-22T00:50:37;6.30;;;1.90;;
3253;SDS011;1639;42.804;23.342;2023-06-22T00:53:03;4.60;;;1.50;;
3253;SDS011;1639;42.804;23.342;2023-06-22T00:55:33;4.60;;;1.20;;
3253;SDS011;1639;42.804;23.342;2023-06-22T00:58:03;5.73;;;1.97;;
3253;SDS011;1639;42.804;23.342;2023-06-22T01:00:30;4.67;;;1.50;;
3253;SDS011;1639;42.804;23.342;2023-06-22T01:02:57;4.80;;;1.67;;
3253;SDS011;1639;42.804;23.342;2023-06-22T01:05:23;4.80;;;1.57;;
3253;SDS011;1639;42.804;23.342;2023-06-22T01:10:48;7.90;;;1.50;;
3253;SDS011;1639;42.804;23.342;2023-06-22T01:13:32;4.80;;;1.20;;
3253;SDS011;1639;42.804;23.342;2023-06-22T01:16:02;4.53;;;1.30;;
3253;SDS011;1639;42.804;23.342;2023-06-22T01:18:31;5.10;;;1.73;;
3253;SDS011;1639;42.804;23.342;2023-06-22T01:20:58;4.60;;;1.33;;
3253;SDS011;1639;42.804;23.342;2023-06-22T01:23:42;4.53;;;1.20;;
3253;SDS011;1639;42.804;23.342;2023-06-22T01:29:47;4.63;;;1.40;;
3253;SDS011;1639;42.804;23.342;2023-06-22T01:32:16;4.93;;;1.50;;
3253;SDS011;1639;42.804;23.342;2023-06-22T01:34:42;4.97;;;1.60;;
3253;SDS011;1639;42.804;23.342;2023-06-22T01:37:08;4.70;;;1.50;;
3253;SDS011;1639;42.804;23.342;2023-06-22T01:39:34;4.73;;;1.57;;
3253;SDS011;1639;42.804;23.342;2023-06-22T01:42:00;4.60;;;1.27;;
3253;SDS011;1639;42.804;23.342;2023-06-22T01:44:28;4.67;;;1.20;;
3253;SDS011;1639;42.804;23.342;2023-06-22T01:46:54;4.90;;;1.73;;
3253;SDS011;1639;42.804;23.342;2023-06-22T01:49:20;5.00;;;1.67;;
3253;SDS011;1639;42.804;23.342;2023-06-22T01:51:45;5.77;;;1.70;;
3253;SDS011;1639;42.804;23.342;2023-06-22T01:54:11;4.70;;;1.70;;
3253;SDS011;1639;42.804;23.342;2023-06-22T01:56:36;5.30;;;1.43;;
3253;SDS011;1639;42.804;23.342;2023-06-22T02:01:42;4.60;;;1.20;;
3253;SDS011;1639;42.804;23.342;2023-06-22T02:04:12;6.17;;;1.90;;
3253;SDS011;1639;42.804;23.342;2023-06-22T02:06:43;5.10;;;1.93;;
3253;SDS011;1639;42.804;23.342;2023-06-22T02:09:12;5.00;;;2.07;;
3253;SDS011;1639;42.804;23.342;2023-06-22T02:11:42;4.80;;;1.40;;
3253;SDS011;1639;42.804;23.342;2023-06-22T02:14:10;5.03;;;1.87;;
3253;SDS011;1639;42.804;23.342;2023-06-22T02:16:37;4.70;;;1.50;;
3253;SDS011;1639;42.804;23.342;2023-06-22T02:19:03;5.10;;;1.60;;
3253;SDS011;1639;42.804;23.342;2023-06-22T02:21:31;4.60;;;1.20;;
3253;SDS011;1639;42.804;23.342;2023-06-22T02:23:57;4.83;;;1.60;;
3253;SDS011;1639;42.804;23.342;2023-06-22T02:26:23;4.73;;;1.43;;
3253;SDS011;1639;42.804;23.342;2023-06-22T02:28:50;4.63;;;1.20;;
3253;SDS011;1639;42.804;23.342;2023-06-22T02:31:15;4.60;;;1.10;;
3253;SDS011;1639;42.804;23.342;2023-06-22T02:33:41;4.93;;;1.67;;
3253;SDS011;1639;42.804;23.342;2023-06-22T02:36:06;4.77;;;1.23;;
3253;SDS011;1639;42.804;23.342;2023-06-22T02:38:34;5.00;;;1.57;;
3253;SDS011;1639;42.804;23.342;2023-06-22T02:41:01;4.70;;;1.23;;
3253;SDS011;1639;42.804;23.342;2023-06-22T02:43:27;5.00;;;1.30;;
3253;SDS011;1639;42.804;23.342;2023-06-22T02:45:53;5.30;;;1.73;;
3253;SDS011;1639;42.804;23.342;2023-06-22T02:48:18;5.00;;;2.03;;
3253;SDS011;1639;42.804;23.342;2023-06-22T02:50:44;5.10;;;1.60;;
3253;SDS011;1639;42.804;23.342;2023-06-22T02:53:09;4.70;;;1.30;;
3253;SDS011;1639;42.804;23.342;2023-06-22T02:55:34;6.90;;;2.27;;
3253;SDS011;1639;42.804;23.342;2023-06-22T02:58:00;4.60;;;1.10;;
3253;SDS011;1639;42.804;23.342;2023-06-22T03:00:29;5.10;;;1.67;;
3253;SDS011;1639;42.804;23.342;2023-06-22T03:02:55;4.60;;;1.10;;
3253;SDS011;1639;42.804;23.342;2023-06-22T03:05:21;4.70;;;1.30;;
3253;SDS011;1639;42.804;23.342;2023-06-22T03:07:46;5.10;;;1.40;;
3253;SDS011;1639;42.804;23.342;2023-06-22T03:10:12;4.70;;;1.30;;
3253;SDS011;1639;42.804;23.342;2023-06-22T03:12:39;5.50;;;2.30;;
3253;SDS011;1639;42.804;23.342;2023-06-22T03:15:06;9.10;;;2.50;;
3253;SDS011;1639;42.804;23.342;2023-06-22T03:17:36;5.00;;;1.50;;
3253;SDS011;1639;42.804;23.342;2023-06-22T03:20:03;6.80;;;1.40;;
3253;SDS011;1639;42.804;23.342;2023-06-22T03:22:39;5.00;;;1.70;;
3253;SDS011;1639;42.804;23.342;2023-06-22T03:25:06;4.70;;;1.50;;
3253;SDS011;1639;42.804;23.342;2023-06-22T03:27:37;5.00;;;1.83;;
3253;SDS011;1639;42.804;23.342;2023-06-22T03:30:03;4.90;;;1.30;;
3253;SDS011;1639;42.804;23.342;2023-06-22T03:32:29;10.17;;;1.90;;
3253;SDS011;1639;42.804;23.342;2023-06-22T03:34:55;4.63;;;1.10;;
3253;SDS011;1639;42.804;23.342;2023-06-22T03:37:24;4.63;;;1.50;;
3253;SDS011;1639;42.804;23.342;2023-06-22T03:39:52;5.20;;;1.60;;
3253;SDS011;1639;42.804;23.342;2023-06-22T03:42:18;4.80;;;1.60;;
3253;SDS011;1639;42.804;23.342;2023-06-22T03:44:43;4.77;;;1.20;;
3253;SDS011;1639;42.804;23.342;2023-06-22T03:47:09;6.17;;;1.97;;
3253;SDS011;1639;42.804;23.342;2023-06-22T03:49:34;4.83;;;1.40;;
3253;SDS011;1639;42.804;23.342;2023-06-22T03:52:00;4.70;;;1.30;;
3253;SDS011;1639;42.804;23.342;2023-06-22T03:54:29;5.47;;;2.03;;
3253;SDS011;1639;42.804;23.342;2023-06-22T03:56:56;4.87;;;1.60;;
3253;SDS011;1639;42.804;23.342;2023-06-22T03:59:22;5.10;;;1.57;;
3253;SDS011;1639;42.804;23.342;2023-06-22T04:01:48;5.13;;;1.37;;
3253;SDS011;1639;42.804;23.342;2023-06-22T04:04:13;4.70;;;1.43;;
3253;SDS011;1639;42.804;23.342;2023-06-22T04:06:39;4.60;;;1.10;;
3253;SDS011;1639;42.804;23.342;2023-06-22T04:09:05;5.10;;;1.43;;
3253;SDS011;1639;42.804;23.342;2023-06-22T04:11:31;4.80;;;1.50;;
3253;SDS011;1639;42.804;23.342;2023-06-22T04:13:56;4.83;;;1.53;;
3253;SDS011;1639;42.804;23.342;2023-06-22T04:16:22;4.90;;;1.60;;
3253;SDS011;1639;42.804;23.342;2023-06-22T04:18:47;5.83;;;2.30;;
3253;SDS011;1639;42.804;23.342;2023-06-22T04:21:13;4.80;;;1.60;;
3253;SDS011;1639;42.804;23.342;2023-06-22T04:23:38;4.60;;;1.30;;
3253;SDS011;1639;42.804;23.342;2023-06-22T04:26:04;5.00;;;1.90;;
3253;SDS011;1639;42.804;23.342;2023-06-22T04:28:29;4.63;;;1.30;;
3253;SDS011;1639;42.804;23.342;2023-06-22T04:30:59;7.00;;;1.57;;
3253;SDS011;1639;42.804;23.342;2023-06-22T04:33:27;4.60;;;1.20;;
3253;SDS011;1639;42.804;23.342;2023-06-22T04:35:54;7.80;;;2.87;;
3253;SDS011;1639;42.804;23.342;2023-06-22T04:38:22;5.10;;;2.17;;
3253;SDS011;1639;42.804;23.342;2023-06-22T04:40:48;4.60;;;1.30;;
3253;SDS011;1639;42.804;23.342;2023-06-22T04:43:14;4.60;;;1.30;;
3253;SDS011;1639;42.804;23.342;2023-06-22T04:45:39;4.90;;;1.60;;
3253;SDS011;1639;42.804;23.342;2023-06-22T04:48:05;4.90;;;1.40;;
3253;SDS011;1639;42.804;23.342;2023-06-22T04:50:31;4.97;;;2.17;;
3253;SDS011;1639;42.804;23.342;2023-06-22T04:52:56;4.90;;;1.43;;
3253;SDS011;1639;42.804;23.342;2023-06-22T04:55:22;4.60;;;1.30;;
3253;SDS011;1639;42.804;23.342;2023-06-22T04:57:47;6.30;;;2.07;;
3253;SDS011;1639;42.804;23.342;2023-06-22T05:00:17;5.13;;;1.70;;
3253;SDS011;1639;42.804;23.342;2023-06-22T05:02:48;5.00;;;1.77;;
3253;SDS011;1639;42.804;23.342;2023-06-22T05:05:14;5.10;;;1.90;;
3253;SDS011;1639;42.804;23.342;2023-06-22T05:07:43;5.20;;;1.70;;
3253;SDS011;1639;42.804;23.342;2023-06-22T05:10:12;4.70;;;1.53;;
3253;SDS011;1639;42.804;23.342;2023-06-22T05:12:38;5.30;;;2.30;;
3253;SDS011;1639;42.804;23.342;2023-06-22T05:15:04;4.77;;;1.67;;
3253;SDS011;1639;42.804;23.342;2023-06-22T05:17:31;4.60;;;1.40;;
3253;SDS011;1639;42.804;23.342;2023-06-22T05:19:56;5.73;;;2.27;;
3253;SDS011;1639;42.804;23.342;2023-06-22T05:22:21;6.40;;;1.93;;
3253;SDS011;1639;42.804;23.342;2023-06-22T05:24:47;5.23;;;1.63;;
3253;SDS011;1639;42.804;23.342;2023-06-22T05:27:13;4.47;;;1.20;;
3253;SDS011;1639;42.804;23.342;2023-06-22T05:29:39;5.40;;;1.60;;
3253;SDS011;1639;42.804;23.342;2023-06-22T05:32:04;5.20;;;2.10;;
3253;SDS011;1639;42.804;23.342;2023-06-22T05:34:30;5.53;;;2.13;;
3253;SDS011;1639;42.804;23.342;2023-06-22T05:36:55;9.90;;;1.80;;
3253;SDS011;1639;42.804;23.342;2023-06-22T05:39:23;4.80;;;1.40;;
3253;SDS011;1639;42.804;23.342;2023-06-22T05:41:49;4.90;;;1.80;;
3253;SDS011;1639;42.804;23.342;2023-06-22T05:44:14;6.50;;;1.60;;
3253;SDS011;1639;42.804;23.342;2023-06-22T05:46:40;4.63;;;1.50;;
3253;SDS011;1639;42.804;23.342;2023-06-22T05:49:11;5.00;;;2.20;;
3253;SDS011;1639;42.804;23.342;2023-06-22T05:51:38;4.80;;;1.43;;
3253;SDS011;1639;42.804;23.342;2023-06-22T05:54:03;5.13;;;1.90;;
3253;SDS011;1639;42.804;23.342;2023-06-22T05:56:29;6.00;;;2.60;;
3253;SDS011;1639;42.804;23.342;2023-06-22T05:58:54;6.40;;;1.77;;
3253;SDS011;1639;42.804;23.342;2023-06-22T06:01:19;6.30;;;2.10;;
3253;SDS011;1639;42.804;23.342;2023-06-22T06:03:45;5.03;;;2.03;;
3253;SDS011;1639;42.804;23.342;2023-06-22T06:06:10;6.63;;;1.53;;
3253;SDS011;1639;42.804;23.342;2023-06-22T06:08:36;5.40;;;1.73;;
3253;SDS011;1639;42.804;23.342;2023-06-22T06:11:02;4.77;;;1.80;;
3253;SDS011;1639;42.804;23.342;2023-06-22T06:13:28;5.20;;;1.50;;
3253;SDS011;1639;42.804;23.342;2023-06-22T06:15:53;5.00;;;2.40;;
3253;SDS011;1639;42.804;23.342;2023-06-22T06:18:20;4.40;;;1.20;;
3253;SDS011;1639;42.804;23.342;2023-06-22T06:20:46;5.03;;;2.10;;
3253;SDS011;1639;42.804;23.342;2023-06-22T06:23:11;9.50;;;2.40;;
3253;SDS011;1639;42.804;23.342;2023-06-22T06:25:37;6.87;;;2.87;;
3253;SDS011;1639;42.804;23.342;2023-06-22T06:28:02;7.53;;;2.50;;
3253;SDS011;1639;42.804;23.342;2023-06-22T06:30:28;5.47;;;1.70;;
3253;SDS011;1639;42.804;23.342;2023-06-22T06:32:54;5.40;;;2.07;;
3253;SDS011;1639;42.804;23.342;2023-06-22T06:35:19;9.43;;;3.03;;
3253;SDS011;1639;42.804;23.342;2023-06-22T06:37:47;6.80;;;2.57;;
3253;SDS011;1639;42.804;23.342;2023-06-22T06:40:14;6.50;;;2.73;;
3253;SDS011;1639;42.804;23.342;2023-06-22T06:42:43;5.10;;;2.07;;
3253;SDS011;1639;42.804;23.342;2023-06-22T06:45:20;6.13;;;2.40;;
3253;SDS011;1639;42.804;23.342;2023-06-22T06:47:48;4.90;;;1.87;;
3253;SDS011;1639;42.804;23.342;2023-06-22T06:50:14;4.60;;;1.70;;
3253;SDS011;1639;42.804;23.342;2023-06-22T06:52:40;4.70;;;1.67;;
3253;SDS011;1639;42.804;23.342;2023-06-22T06:55:06;5.10;;;1.70;;
3253;SDS011;1639;42.804;23.342;2023-06-22T06:57:34;4.70;;;1.53;;
3253;SDS011;1639;42.804;23.342;2023-06-22T07:00:00;5.10;;;2.00;;
3253;SDS011;1639;42.804;23.342;2023-06-22T07:02:26;5.10;;;1.57;;
3253;SDS011;1639;42.804;23.342;2023-06-22T07:04:54;9.73;;;2.63;;
3253;SDS011;1639;42.804;23.342;2023-06-22T07:07:22;4.80;;;1.47;;
3253;SDS011;1639;42.804;23.342;2023-06-22T07:09:48;5.53;;;2.40;;
3253;SDS011;1639;42.804;23.342;2023-06-22T07:12:13;5.43;;;2.17;;
3253;SDS011;1639;42.804;23.342;2023-06-22T07:14:38;5.77;;;2.13;;
3253;SDS011;1639;42.804;23.342;2023-06-22T07:17:04;4.87;;;1.53;;
3253;SDS011;1639;42.804;23.342;2023-06-22T07:19:29;4.80;;;1.90;;
3253;SDS011;1639;42.804;23.342;2023-06-22T07:21:56;8.53;;;3.30;;
3253;SDS011;1639;42.804;23.342;2023-06-22T07:24:21;6.00;;;2.10;;
3253;SDS011;1639;42.804;23.342;2023-06-22T07:26:48;6.73;;;2.50;;
3253;SDS011;1639;42.804;23.342;2023-06-22T07:29:15;6.00;;;2.53;;
3253;SDS011;1639;42.804;23.342;2023-06-22T07:31:46;8.37;;;2.57;;
3253;SDS011;1639;42.804;23.342;2023-06-22T07:34:12;7.00;;;2.50;;
3253;SDS011;1639;42.804;23.342;2023-06-22T07:36:37;7.27;;;3.27;;
3253;SDS011;1639;42.804;23.342;2023-06-22T07:39:03;5.00;;;1.70;;
3253;SDS011;1639;42.804;23.342;2023-06-22T07:41:29;4.90;;;2.33;;
3253;SDS011;1639;42.804;23.342;2023-06-22T07:43:54;6.63;;;2.80;;
3253;SDS011;1639;42.804;23.342;2023-06-22T07:46:20;7.87;;;2.73;;
3253;SDS011;1639;42.804;23.342;2023-06-22T07:48:45;7.60;;;2.60;;
3253;SDS011;1639;42.804;23.342;2023-06-22T07:51:11;5.47;;;2.70;;
3253;SDS011;1639;42.804;23.342;2023-06-22T07:53:42;10.20;;;2.97;;
3253;SDS011;1639;42.804;23.342;2023-06-22T07:56:11;7.70;;;2.73;;
3253;SDS011;1639;42.804;23.342;2023-06-22T07:58:37;6.30;;;2.97;;
3253;SDS011;1639;42.804;23.342;2023-06-22T08:01:02;8.27;;;2.83;;
3253;SDS011;1639;42.804;23.342;2023-06-22T08:03:28;6.97;;;2.97;;
3253;SDS011;1639;42.804;23.342;2023-06-22T08:05:54;6.20;;;1.73;;
3253;SDS011;1639;42.804;23.342;2023-06-22T08:08:20;8.57;;;2.87;;
3253;SDS011;1639;42.804;23.342;2023-06-22T08:10:45;5.20;;;2.90;;
3253;SDS011;1639;42.804;23.342;2023-06-22T08:13:12;5.10;;;2.50;;
3253;SDS011;1639;42.804;23.342;2023-06-22T08:15:37;5.07;;;2.37;;
3253;SDS011;1639;42.804;23.342;2023-06-22T08:18:03;11.30;;;3.60;;
3253;SDS011;1639;42.804;23.342;2023-06-22T08:20:28;8.00;;;3.90;;
3253;SDS011;1639;42.804;23.342;2023-06-22T08:22:55;8.63;;;3.30;;
3253;SDS011;1639;42.804;23.342;2023-06-22T08:25:21;6.03;;;2.47;;
3253;SDS011;1639;42.804;23.342;2023-06-22T08:27:46;12.03;;;2.73;;
3253;SDS011;1639;42.804;23.342;2023-06-22T08:30:13;7.70;;;3.40;;
3253;SDS011;1639;42.804;23.342;2023-06-22T08:32:39;5.00;;;2.43;;
3253;SDS011;1639;42.804;23.342;2023-06-22T08:35:05;5.40;;;2.33;;
3253;SDS011;1639;42.804;23.342;2023-06-22T08:37:33;7.70;;;2.93;;
3253;SDS011;1639;42.804;23.342;2023-06-22T08:40:00;8.73;;;3.57;;
3253;SDS011;1639;42.804;23.342;2023-06-22T08:42:29;7.40;;;2.40;;
3253;SDS011;1639;42.804;23.342;2023-06-22T08:44:55;5.70;;;2.83;;
3253;SDS011;1639;42.804;23.342;2023-06-22T08:47:20;7.13;;;2.70;;
3253;SDS011;1639;42.804;23.342;2023-06-22T08:49:46;10.80;;;3.10;;
3253;SDS011;1639;42.804;23.342;2023-06-22T08:52:12;7.63;;;3.53;;
3253;SDS011;1639;42.804;23.342;2023-06-22T08:54:37;8.20;;;3.67;;
3253;SDS011;1639;42.804;23.342;2023-06-22T08:57:03;7.67;;;2.73;;
3253;SDS011;1639;42.804;23.342;2023-06-22T08:59:29;6.00;;;2.87;;
3253;SDS011;1639;42.804;23.342;2023-06-22T09:01:54;9.40;;;3.27;;
3253;SDS011;1639;42.804;23.342;2023-06-22T09:04:19;6.40;;;2.43;;
3253;SDS011;1639;42.804;23.342;2023-06-22T09:06:47;7.23;;;2.63;;
3253;SDS011;1639;42.804;23.342;2023-06-22T09:09:13;10.07;;;4.00;;
3253;SDS011;1639;42.804;23.342;2023-06-22T09:11:39;5.00;;;2.50;;
3253;SDS011;1639;42.804;23.342;2023-06-22T09:14:05;12.53;;;3.00;;
3253;SDS011;1639;42.804;23.342;2023-06-22T09:16:31;7.20;;;2.80;;
3253;SDS011;1639;42.804;23.342;2023-06-22T09:18:57;6.97;;;3.40;;
3253;SDS011;1639;42.804;23.342;2023-06-22T09:21:23;5.10;;;2.20;;
3253;SDS011;1639;42.804;23.342;2023-06-22T09:23:48;6.77;;;3.23;;
3253;SDS011;1639;42.804;23.342;2023-06-22T09:29:35;5.47;;;2.37;;
3253;SDS011;1639;42.804;23.342;2023-06-22T09:32:00;6.07;;;3.10;;
3253;SDS011;1639;42.804;23.342;2023-06-22T09:34:26;6.77;;;3.37;;
3253;SDS011;1639;42.804;23.342;2023-06-22T09:36:52;5.13;;;2.37;;
3253;SDS011;1639;42.804;23.342;2023-06-22T09:39:18;4.90;;;2.30;;
3253;SDS011;1639;42.804;23.342;2023-06-22T09:41:43;7.63;;;3.17;;
3253;SDS011;1639;42.804;23.342;2023-06-22T09:44:09;6.37;;;3.07;;
3253;SDS011;1639;42.804;23.342;2023-06-22T09:46:34;5.90;;;2.70;;
3253;SDS011;1639;42.804;23.342;2023-06-22T09:49:00;5.63;;;2.10;;
3253;SDS011;1639;42.804;23.342;2023-06-22T09:51:25;7.50;;;3.03;;
3253;SDS011;1639;42.804;23.342;2023-06-22T09:53:51;10.60;;;3.70;;
3253;SDS011;1639;42.804;23.342;2023-06-22T09:56:18;5.63;;;3.23;;
3253;SDS011;1639;42.804;23.342;2023-06-22T09:58:44;9.80;;;2.87;;
3253;SDS011;1639;42.804;23.342;2023-06-22T10:01:11;6.80;;;2.50;;
3253;SDS011;1639;42.804;23.342;2023-06-22T10:03:36;6.47;;;2.60;;
3253;SDS011;1639;42.804;23.342;2023-06-22T10:06:02;9.03;;;3.03;;
3253;SDS011;1639;42.804;23.342;2023-06-22T10:08:28;7.47;;;3.53;;
3253;SDS011;1639;42.804;23.342;2023-06-22T10:10:54;6.57;;;2.53;;
3253;SDS011;1639;42.804;23.342;2023-06-22T10:13:19;6.30;;;3.30;;
3253;SDS011;1639;42.804;23.342;2023-06-22T10:15:45;6.93;;;2.67;;
3253;SDS011;1639;42.804;23.342;2023-06-22T10:18:15;4.90;;;1.90;;
3253;SDS011;1639;42.804;23.342;2023-06-22T10:20:41;6.87;;;2.07;;
3253;SDS011;1639;42.804;23.342;2023-06-22T10:23:07;6.57;;;2.37;;
3253;SDS011;1639;42.804;23.342;2023-06-22T10:25:32;7.60;;;3.10;;
3253;SDS011;1639;42.804;23.342;2023-06-22T10:27:58;6.20;;;2.43;;
3253;SDS011;1639;42.804;23.342;2023-06-22T10:30:23;6.67;;;2.27;;
3253;SDS011;1639;42.804;23.342;2023-06-22T10:32:49;5.37;;;2.70;;
3253;SDS011;1639;42.804;23.342;2023-06-22T10:35:14;4.90;;;2.33;;
3253;SDS011;1639;42.804;23.342;2023-06-22T10:37:42;5.97;;;2.10;;
3253;SDS011;1639;42.804;23.342;2023-06-22T10:40:08;5.73;;;2.67;;
3253;SDS011;1639;42.804;23.342;2023-06-22T10:42:34;6.83;;;2.50;;
3253;SDS011;1639;42.804;23.342;2023-06-22T10:44:59;4.77;;;2.53;;
3253;SDS011;1639;42.804;23.342;2023-06-22T10:47:25;6.60;;;3.43;;
3253;SDS011;1639;42.804;23.342;2023-06-22T10:49:50;5.80;;;2.83;;
3253;SDS011;1639;42.804;23.342;2023-06-22T10:52:16;7.60;;;2.80;;
3253;SDS011;1639;42.804;23.342;2023-06-22T10:54:41;5.13;;;2.30;;
3253;SDS011;1639;42.804;23.342;2023-06-22T10:57:07;9.03;;;2.97;;
3253;SDS011;1639;42.804;23.342;2023-06-22T10:59:32;5.40;;;2.20;;
3253;SDS011;1639;42.804;23.342;2023-06-22T11:01:58;6.73;;;3.00;;
3253;SDS011;1639;42.804;23.342;2023-06-22T11:04:24;5.00;;;2.13;;
3253;SDS011;1639;42.804;23.342;2023-06-22T11:06:50;6.60;;;2.37;;
3253;SDS011;1639;42.804;23.342;2023-06-22T11:09:16;5.80;;;2.57;;
3253;SDS011;1639;42.804;23.342;2023-06-22T11:11:45;5.50;;;2.40;;
3253;SDS011;1639;42.804;23.342;2023-06-22T11:14:12;7.13;;;2.90;;
3253;SDS011;1639;42.804;23.342;2023-06-22T11:16:37;5.87;;;1.97;;
3253;SDS011;1639;42.804;23.342;2023-06-22T11:19:04;6.70;;;2.60;;
3253;SDS011;1639;42.804;23.342;2023-06-22T11:21:30;8.30;;;3.07;;
3253;SDS011;1639;42.804;23.342;2023-06-22T11:23:56;5.00;;;2.40;;
3253;SDS011;1639;42.804;23.342;2023-06-22T11:26:22;6.13;;;3.30;;
3253;SDS011;1639;42.804;23.342;2023-06-22T11:28:48;6.33;;;2.40;;
3253;SDS011;1639;42.804;23.342;2023-06-22T11:31:13;5.33;;;2.50;;
3253;SDS011;1639;42.804;23.342;2023-06-22T11:33:39;4.70;;;2.13;;
3253;SDS011;1639;42.804;23.342;2023-06-22T11:36:04;5.23;;;2.70;;
3253;SDS011;1639;42.804;23.342;2023-06-22T11:38:30;5.97;;;2.57;;
3253;SDS011;1639;42.804;23.342;2023-06-22T11:40:57;7.73;;;2.10;;
3253;SDS011;1639;42.804;23.342;2023-06-22T11:43:23;5.73;;;2.60;;
3253;SDS011;1639;42.804;23.342;2023-06-22T11:45:49;6.20;;;2.97;;
3253;SDS011;1639;42.804;23.342;2023-06-22T11:48:15;6.87;;;2.77;;
3253;SDS011;1639;42.804;23.342;2023-06-22T11:50:40;7.70;;;2.80;;
3253;SDS011;1639;42.804;23.342;2023-06-22T11:53:06;6.80;;;2.67;;
3253;SDS011;1639;42.804;23.342;2023-06-22T11:55:31;6.10;;;2.77;;
3253;SDS011;1639;42.804;23.342;2023-06-22T11:57:57;5.23;;;2.60;;
3253;SDS011;1639;42.804;23.342;2023-06-22T12:00:25;6.73;;;2.60;;
3253;SDS011;1639;42.804;23.342;2023-06-22T12:02:51;7.00;;;2.77;;
3253;SDS011;1639;42.804;23.342;2023-06-22T12:05:20;4.80;;;2.33;;
3253;SDS011;1639;42.804;23.342;2023-06-22T12:07:49;5.83;;;1.70;;
3253;SDS011;1639;42.804;23.342;2023-06-22T12:10:15;4.70;;;2.27;;
3253;SDS011;1639;42.804;23.342;2023-06-22T12:12:41;6.93;;;2.80;;
3253;SDS011;1639;42.804;23.342;2023-06-22T12:15:07;6.20;;;2.53;;
3253;SDS011;1639;42.804;23.342;2023-06-22T12:17:34;8.50;;;3.30;;
3253;SDS011;1639;42.804;23.342;2023-06-22T12:19:59;12.07;;;4.00;;
3253;SDS011;1639;42.804;23.342;2023-06-22T12:22:25;7.80;;;2.77;;
3253;SDS011;1639;42.804;23.342;2023-06-22T12:24:50;6.90;;;2.80;;
3253;SDS011;1639;42.804;23.342;2023-06-22T12:27:16;5.07;;;2.30;;
3253;SDS011;1639;42.804;23.342;2023-06-22T12:29:43;5.40;;;2.13;;
3253;SDS011;1639;42.804;23.342;2023-06-22T12:32:11;6.60;;;2.90;;
3253;SDS011;1639;42.804;23.342;2023-06-22T12:34:38;5.17;;;2.07;;
3253;SDS011;1639;42.804;23.342;2023-06-22T12:37:04;4.67;;;1.93;;
3253;SDS011;1639;42.804;23.342;2023-06-22T12:39:30;10.43;;;2.40;;
3253;SDS011;1639;42.804;23.342;2023-06-22T12:41:59;4.80;;;2.07;;
3253;SDS011;1639;42.804;23.342;2023-06-22T12:44:24;5.00;;;1.97;;
3253;SDS011;1639;42.804;23.342;2023-06-22T12:46:50;4.73;;;1.93;;
3253;SDS011;1639;42.804;23.342;2023-06-22T12:49:15;6.33;;;2.53;;
3253;SDS011;1639;42.804;23.342;2023-06-22T12:51:41;5.67;;;1.73;;
3253;SDS011;1639;42.804;23.342;2023-06-22T12:54:08;6.70;;;1.83;;
3253;SDS011;1639;42.804;23.342;2023-06-22T12:56:33;4.90;;;1.90;;
3253;SDS011;1639;42.804;23.342;2023-06-22T12:58:59;7.43;;;2.20;;
3253;SDS011;1639;42.804;23.342;2023-06-22T13:01:27;5.17;;;1.87;;
3253;SDS011;1639;42.804;23.342;2023-06-22T13:03:53;4.70;;;1.63;;
3253;SDS011;1639;42.804;23.342;2023-06-22T13:06:18;4.70;;;1.97;;
3253;SDS011;1639;42.804;23.342;2023-06-22T13:08:44;4.80;;;2.23;;
3253;SDS011;1639;42.804;23.342;2023-06-22T13:11:09;7.77;;;2.67;;
3253;SDS011;1639;42.804;23.342;2023-06-22T13:13:34;4.80;;;2.00;;
3253;SDS011;1639;42.804;23.342;2023-06-22T13:16:00;4.60;;;1.63;;
3253;SDS011;1639;42.804;23.342;2023-06-22T13:18:25;6.93;;;1.93;;
3253;SDS011;1639;42.804;23.342;2023-06-22T13:20:51;5.57;;;2.33;;
3253;SDS011;1639;42.804;23.342;2023-06-22T13:23:19;4.50;;;1.83;;
3253;SDS011;1639;42.804;23.342;2023-06-22T13:25:44;5.20;;;2.07;;
3253;SDS011;1639;42.804;23.342;2023-06-22T13:28:10;4.80;;;1.97;;
3253;SDS011;1639;42.804;23.342;2023-06-22T13:30:38;5.07;;;1.83;;
3253;SDS011;1639;42.804;23.342;2023-06-22T13:33:03;4.90;;;2.20;;
3253;SDS011;1639;42.804;23.342;2023-06-22T13:35:29;5.37;;;2.53;;
3253;SDS011;1639;42.804;23.342;2023-06-22T13:37:54;7.10;;;1.50;;
3253;SDS011;1639;42.804;23.342;2023-06-22T13:40:20;4.40;;;1.40;;
3253;SDS011;1639;42.804;23.342;2023-06-22T13:42:45;7.03;;;2.30;;
3253;SDS011;1639;42.804;23.342;2023-06-22T13:45:10;5.13;;;2.07;;
3253;SDS011;1639;42.804;23.342;2023-06-22T13:47:36;4.40;;;1.30;;
3253;SDS011;1639;42.804;23.342;2023-06-22T13:50:02;4.67;;;1.90;;
3253;SDS011;1639;42.804;23.342;2023-06-22T13:52:28;5.20;;;2.07;;
3253;SDS011;1639;42.804;23.342;2023-06-22T13:54:53;5.80;;;2.50;;
3253;SDS011;1639;42.804;23.342;2023-06-22T13:57:19;5.23;;;2.13;;
3253;SDS011;1639;42.804;23.342;2023-06-22T13:59:44;4.90;;;1.80;;
3253;SDS011;1639;42.804;23.342;2023-06-22T14:02:10;5.00;;;1.83;;
3253;SDS011;1639;42.804;23.342;2023-06-22T14:04:35;4.30;;;1.20;;
3253;SDS011;1639;42.804;23.342;2023-06-22T14:07:00;5.67;;;1.97;;
3253;SDS011;1639;42.804;23.342;2023-06-22T14:09:26;6.10;;;2.20;;
3253;SDS011;1639;42.804;23.342;2023-06-22T14:11:51;4.70;;;1.90;;
3253;SDS011;1639;42.804;23.342;2023-06-22T14:14:18;4.83;;;1.80;;
3253;SDS011;1639;42.804;23.342;2023-06-22T14:16:44;4.73;;;2.10;;
3253;SDS011;1639;42.804;23.342;2023-06-22T14:19:09;5.10;;;1.93;;
3253;SDS011;1639;42.804;23.342;2023-06-22T14:21:35;4.50;;;1.50;;
3253;SDS011;1639;42.804;23.342;2023-06-22T14:24:00;6.60;;;2.03;;
3253;SDS011;1639;42.804;23.342;2023-06-22T14:26:25;5.57;;;2.10;;
3253;SDS011;1639;42.804;23.342;2023-06-22T14:28:51;9.70;;;2.50;;
3253;SDS011;1639;42.804;23.342;2023-06-22T14:31:18;4.40;;;1.40;;
3253;SDS011;1639;42.804;23.342;2023-06-22T14:33:45;6.70;;;2.00;;
3253;SDS011;1639;42.804;23.342;2023-06-22T14:36:13;6.30;;;2.43;;
3253;SDS011;1639;42.804;23.342;2023-06-22T14:38:39;7.40;;;2.07;;
3253;SDS011;1639;42.804;23.342;2023-06-22T14:41:04;6.37;;;1.80;;
3253;SDS011;1639;42.804;23.342;2023-06-22T14:43:29;4.40;;;1.40;;
3253;SDS011;1639;42.804;23.342;2023-06-22T14:45:55;4.80;;;1.50;;
3253;SDS011;1639;42.804;23.342;2023-06-22T14:48:20;4.60;;;1.73;;
3253;SDS011;1639;42.804;23.342;2023-06-22T14:50:46;5.20;;;1.40;;
3253;SDS011;1639;42.804;23.342;2023-06-22T14:53:11;5.07;;;1.97;;
3253;SDS011;1639;42.804;23.342;2023-06-22T14:55:37;5.33;;;2.60;;
3253;SDS011;1639;42.804;23.342;2023-06-22T14:58:02;5.03;;;1.97;;
3253;SDS011;1639;42.804;23.342;2023-06-22T15:00:27;5.83;;;2.20;;
3253;SDS011;1639;42.804;23.342;2023-06-22T15:02:53;5.47;;;2.70;;
3253;SDS011;1639;42.804;23.342;2023-06-22T15:05:18;6.60;;;2.00;;
3253;SDS011;1639;42.804;23.342;2023-06-22T15:07:44;5.10;;;1.87;;